Time;durP1;ratioP1;P1;durP2;ratioP2;P2;SDS_P1;SDS_P2;PMS_P1;PMS_P2;Temp;Humidity;BMP_temperature;BMP_pressure;BME280_temperature;BME280_humidity;BME280_pressure;Samples;Min_cycle;Max_cycle;Signal;HPM_P1;HPM_P2
2022/12/12 00:00:08;;;;;;;;;38.33;30.67;;;;;;;;5120701;27;45424;-65
2022/12/12 00:02:35;;;;;;;;;30.67;25.67;;;;;;;;5119721;27;45695;-64
2022/12/12 00:05:00;;;;;;;;;37.33;29.00;;;;;;;;5120045;27;45466;-65
2022/12/12 00:07:26;;;;;;;;;34.00;30.67;;;;;;;;5120040;27;45489;-65
2022/12/12 00:09:51;;;;;;;;;23.67;21.67;;;;;;;;5120162;27;45448;-64
2022/12/12 00:12:16;;;;;;;;;47.00;27.33;;;;;;;;5111805;27;46429;-64
2022/12/12 00:14:41;;;;;;;;;38.00;30.33;;;;;;;;5119321;27;45410;-64
2022/12/12 00:17:07;;;;;;;;;41.00;31.00;;;;;;;;5120142;27;45777;-64
2022/12/12 00:19:32;;;;;;;;;30.00;24.00;;;;;;;;5119725;27;45319;-65
2022/12/12 00:21:57;;;;;;;;;35.00;29.67;;;;;;;;5118088;27;46150;-65
2022/12/12 00:24:22;;;;;;;;;35.00;29.33;;;;;;;;5119894;27;45525;-65
2022/12/12 00:26:47;;;;;;;;;37.00;28.67;;;;;;;;5119774;27;45406;-64
2022/12/12 00:29:13;;;;;;;;;33.33;25.67;;;;;;;;5117198;27;45439;-65
2022/12/12 00:31:38;;;;;;;;;36.33;26.67;;;;;;;;5119625;27;46464;-64
2022/12/12 00:34:03;;;;;;;;;36.00;28.67;;;;;;;;5119877;27;45412;-65
2022/12/12 00:36:29;;;;;;;;;36.67;23.33;;;;;;;;5119779;27;45420;-65
2022/12/12 00:38:54;;;;;;;;;33.33;24.33;;;;;;;;5119859;27;45493;-64
2022/12/12 00:41:20;;;;;;;;;32.33;24.33;;;;;;;;5108623;27;46452;-65
2022/12/12 00:43:46;;;;;;;;;29.67;27.00;;;;;;;;5116498;27;45242;-64
2022/12/12 00:46:15;;;;;;;;;30.67;22.67;;;;;;;;5119527;27;45422;-64
2022/12/12 00:48:40;;;;;;;;;31.33;21.67;;;;;;;;5117126;27;45477;-65
2022/12/12 00:51:10;;;;;;;;;30.33;25.00;;;;;;;;5119119;27;46518;-64
2022/12/12 00:53:36;;;;;;;;;21.00;19.33;;;;;;;;5119273;27;45330;-64
2022/12/12 00:56:01;;;;;;;;;37.33;28.00;;;;;;;;5119385;27;45531;-64
2022/12/12 00:58:26;;;;;;;;;32.33;25.67;;;;;;;;5117523;27;45205;-65
2022/12/12 01:00:52;;;;;;;;;25.33;22.00;;;;;;;;5122701;27;45584;-64
2022/12/12 01:03:17;;;;;;;;;31.67;27.33;;;;;;;;5116114;27;45440;-64
2022/12/12 01:05:43;;;;;;;;;32.33;25.00;;;;;;;;5107533;27;45372;-65
2022/12/12 01:08:08;;;;;;;;;37.00;26.33;;;;;;;;5119693;27;45380;-64
2022/12/12 01:10:33;;;;;;;;;43.33;31.33;;;;;;;;5120969;27;46620;-65
2022/12/12 01:12:58;;;;;;;;;36.67;27.00;;;;;;;;5139972;27;45360;-64
2022/12/12 01:15:25;;;;;;;;;31.33;23.00;;;;;;;;5139979;27;45400;-64
2022/12/12 01:17:50;;;;;;;;;28.33;22.33;;;;;;;;5140218;27;45318;-64
2022/12/12 01:20:20;;;;;;;;;28.00;24.67;;;;;;;;5139764;27;47087;-64
2022/12/12 01:22:45;;;;;;;;;29.00;20.00;;;;;;;;5113986;27;45469;-64
2022/12/12 01:25:11;;;;;;;;;23.00;22.33;;;;;;;;5098514;27;45340;-64
2022/12/12 01:27:36;;;;;;;;;29.67;19.33;;;;;;;;5098534;27;45508;-65
2022/12/12 01:30:02;;;;;;;;;33.33;22.00;;;;;;;;5114945;27;46525;-65
2022/12/12 01:32:27;;;;;;;;;23.50;23.00;;;;;;;;5118730;27;45826;-65
2022/12/12 01:34:53;;;;;;;;;27.67;21.00;;;;;;;;5118910;27;45433;-64
2022/12/12 01:37:18;;;;;;;;;23.00;19.00;;;;;;;;5118866;27;45504;-65
2022/12/12 01:39:43;;;;;;;;;32.33;21.00;;;;;;;;5117957;27;46167;-64
2022/12/12 01:42:11;;;;;;;;;32.67;23.00;;;;;;;;5118264;27;45488;-64
2022/12/12 01:44:47;;;;;;;;;21.67;17.33;;;;;;;;5118542;27;45473;-65
2022/12/12 01:47:14;;;;;;;;;34.33;29.00;;;;;;;;5118843;27;45456;-64
2022/12/12 01:49:41;;;;;;;;;29.33;19.00;;;;;;;;5118538;27;46187;-64
2022/12/12 01:52:10;;;;;;;;;29.33;26.00;;;;;;;;5118172;27;45415;-65
2022/12/12 01:54:39;;;;;;;;;27.33;21.33;;;;;;;;5118399;27;45275;-64
2022/12/12 01:57:07;;;;;;;;;27.00;22.00;;;;;;;;5118551;27;45220;-64
2022/12/12 01:59:33;;;;;;;;;19.00;17.33;;;;;;;;5101446;27;47525;-64
2022/12/12 02:01:58;;;;;;;;;24.00;19.67;;;;;;;;5118370;27;45732;-64
2022/12/12 02:04:25;;;;;;;;;30.33;20.33;;;;;;;;5118385;27;45374;-64
2022/12/12 02:06:51;;;;;;;;;25.00;19.00;;;;;;;;5118864;27;45383;-64
2022/12/12 02:09:17;;;;;;;;;28.33;21.67;;;;;;;;5118109;27;46114;-65
2022/12/12 02:11:44;;;;;;;;;26.67;22.33;;;;;;;;5117821;27;45501;-65
2022/12/12 02:14:10;;;;;;;;;30.67;18.33;;;;;;;;5115142;27;45421;-64
2022/12/12 02:16:54;;;;;;;;;30.00;22.00;;;;;;;;5118488;27;45492;-64
2022/12/12 02:19:38;;;;;;;;;25.67;20.67;;;;;;;;5117428;27;46616;-64
2022/12/12 02:22:21;;;;;;;;;27.33;19.33;;;;;;;;5117794;27;45409;-64
2022/12/12 02:25:25;;;;;;;;;26.67;19.67;;;;;;;;5117704;27;45325;-64
2022/12/12 02:27:59;;;;;;;;;25.67;19.00;;;;;;;;5094909;27;45522;-64
2022/12/12 02:30:59;;;;;;;;;21.00;20.67;;;;;;;;5094129;27;46535;-64
2022/12/12 02:33:30;;;;;;;;;32.67;24.33;;;;;;;;5013884;28;45425;-64
2022/12/12 02:36:02;;;;;;;;;28.00;20.33;;;;;;;;5014138;28;45894;-64
2022/12/12 02:38:27;;;;;;;;;32.00;28.00;;;;;;;;5007839;28;45255;-64
2022/12/12 02:41:12;;;;;;;;;31.00;20.67;;;;;;;;5013849;28;47095;-64
2022/12/12 02:43:42;;;;;;;;;29.67;22.33;;;;;;;;5017633;28;45373;-65
2022/12/12 02:46:07;;;;;;;;;27.67;24.00;;;;;;;;5017682;28;45508;-65
2022/12/12 02:48:38;;;;;;;;;28.33;25.33;;;;;;;;5017765;28;45525;-64
2022/12/12 02:51:04;;;;;;;;;33.00;26.00;;;;;;;;5017396;28;45488;-65
2022/12/12 02:53:30;;;;;;;;;37.33;29.33;;;;;;;;5015194;28;45430;-64
2022/12/12 02:56:01;;;;;;;;;36.67;25.00;;;;;;;;5017856;28;45551;-64
2022/12/12 02:58:26;;;;;;;;;23.67;20.33;;;;;;;;5035119;28;45410;-64
2022/12/12 03:01:09;;;;;;;;;37.00;26.00;;;;;;;;5057727;28;46585;-64
2022/12/12 03:09:34;;;;;;;;;27.00;19.33;;;;;;;;5139249;27;45289;-65
2022/12/12 03:11:59;;;;;;;;;24.33;21.67;;;;;;;;5121103;27;46238;-64
2022/12/12 03:14:37;;;;;;;;;30.33;20.00;;;;;;;;5120740;27;45439;-64
2022/12/12 03:17:24;;;;;;;;;23.00;14.67;;;;;;;;5121391;27;45258;-64
2022/12/12 03:19:58;;;;;;;;;27.00;24.67;;;;;;;;5121267;27;45350;-64
2022/12/12 03:22:30;;;;;;;;;35.33;26.33;;;;;;;;5120620;27;46587;-64
2022/12/12 03:24:55;;;;;;;;;24.33;19.00;;;;;;;;5120836;27;45446;-64
2022/12/12 03:27:23;;;;;;;;;33.00;24.00;;;;;;;;5117428;27;46709;-65
2022/12/12 03:30:04;;;;;;;;;27.33;19.00;;;;;;;;5120928;27;45366;-64
2022/12/12 03:32:35;;;;;;;;;27.00;26.67;;;;;;;;5120658;27;47926;-64
2022/12/12 03:35:16;;;;;;;;;32.33;19.67;;;;;;;;5120561;27;45429;-64
2022/12/12 03:37:45;;;;;;;;;31.67;25.00;;;;;;;;5120544;27;45564;-64
2022/12/12 03:40:14;;;;;;;;;32.33;19.33;;;;;;;;5120813;27;45488;-64
2022/12/12 03:42:40;;;;;;;;;29.33;20.67;;;;;;;;5115405;27;45450;-65
2022/12/12 03:45:09;;;;;;;;;25.33;19.00;;;;;;;;5120055;27;45288;-64
2022/12/12 03:47:40;;;;;;;;;34.00;24.67;;;;;;;;5120529;27;45430;-64
2022/12/12 03:50:09;;;;;;;;;30.33;22.00;;;;;;;;5120518;27;45457;-64
2022/12/12 03:52:36;;;;;;;;;22.67;19.00;;;;;;;;5119997;27;45419;-64
2022/12/12 03:55:11;;;;;;;;;27.67;21.67;;;;;;;;5119904;27;45372;-64
2022/12/12 03:57:39;;;;;;;;;28.33;22.00;;;;;;;;5120382;27;45397;-64
2022/12/12 04:00:09;;;;;;;;;28.00;21.33;;;;;;;;5108584;27;45537;-64
2022/12/12 04:02:46;;;;;;;;;31.33;23.33;;;;;;;;5117559;27;46588;-64
2022/12/12 04:05:14;;;;;;;;;31.67;24.33;;;;;;;;5120538;27;45407;-64
2022/12/12 04:07:50;;;;;;;;;28.00;20.00;;;;;;;;5119946;27;45428;-65
2022/12/12 04:13:10;;;;;;;;;29.00;24.33;;;;;;;;5119805;27;45628;-64
2022/12/12 04:15:46;;;;;;;;;33.33;22.33;;;;;;;;5119530;27;45515;-65
2022/12/12 04:18:17;;;;;;;;;26.33;22.00;;;;;;;;5116087;27;45663;-64
2022/12/12 04:23:35;;;;;;;;;31.00;26.33;;;;;;;;5119537;27;45403;-64
2022/12/12 04:28:52;;;;;;;;;33.00;28.33;;;;;;;;5119371;27;45358;-65
2022/12/12 04:31:18;;;;;;;;;36.00;27.33;;;;;;;;5120355;27;45386;-64
2022/12/12 04:33:51;;;;;;;;;33.67;27.33;;;;;;;;5119314;27;46624;-64
2022/12/12 04:36:18;;;;;;;;;24.00;19.00;;;;;;;;5116177;27;45298;-64
2022/12/12 04:38:45;;;;;;;;;30.00;27.33;;;;;;;;5119866;27;45744;-64
2022/12/12 04:41:12;;;;;;;;;40.67;33.67;;;;;;;;5119623;27;45483;-64
2022/12/12 04:43:39;;;;;;;;;36.33;30.33;;;;;;;;5119193;27;47393;-64
2022/12/12 04:46:06;;;;;;;;;41.67;29.33;;;;;;;;5119400;27;45407;-64
2022/12/12 04:48:35;;;;;;;;;31.33;26.00;;;;;;;;5119626;27;45313;-64
2022/12/12 04:51:02;;;;;;;;;41.67;29.00;;;;;;;;5112981;27;45465;-64
2022/12/12 04:53:36;;;;;;;;;37.33;26.00;;;;;;;;5140017;27;46313;-64
2022/12/12 04:56:05;;;;;;;;;36.67;29.67;;;;;;;;5140255;27;45447;-65
2022/12/12 04:58:30;;;;;;;;;34.00;28.33;;;;;;;;5140377;27;45234;-64
2022/12/12 05:01:05;;;;;;;;;35.33;25.33;;;;;;;;5140276;27;45214;-65
2022/12/12 05:03:42;;;;;;;;;32.33;27.00;;;;;;;;5131390;27;45493;-65
2022/12/12 05:06:10;;;;;;;;;29.67;24.67;;;;;;;;5112251;27;45188;-65
2022/12/12 05:08:38;;;;;;;;;38.67;22.33;;;;;;;;5119297;27;45313;-64
2022/12/12 05:11:04;;;;;;;;;30.33;26.33;;;;;;;;5119618;27;45387;-65
2022/12/12 05:13:31;;;;;;;;;38.00;28.67;;;;;;;;5119042;27;46218;-64
2022/12/12 05:15:58;;;;;;;;;37.67;32.00;;;;;;;;5118943;27;45398;-64
2022/12/12 05:18:23;;;;;;;;;35.00;27.33;;;;;;;;5119004;27;45472;-64
2022/12/12 05:20:49;;;;;;;;;30.00;24.00;;;;;;;;5119544;27;45405;-64
2022/12/12 05:23:14;;;;;;;;;27.67;24.00;;;;;;;;5116146;27;45620;-64
2022/12/12 05:25:39;;;;;;;;;30.33;25.33;;;;;;;;5111365;27;45438;-65
2022/12/12 05:28:04;;;;;;;;;34.00;25.33;;;;;;;;5119191;27;45542;-64
2022/12/12 05:30:30;;;;;;;;;32.33;27.00;;;;;;;;5114361;27;45503;-64
2022/12/12 05:32:55;;;;;;;;;37.33;29.00;;;;;;;;5118718;27;46182;-64
2022/12/12 05:35:20;;;;;;;;;34.33;25.33;;;;;;;;5118746;27;45389;-64
2022/12/12 05:37:45;;;;;;;;;36.00;27.33;;;;;;;;5116154;27;45469;-64
2022/12/12 05:40:11;;;;;;;;;29.00;23.00;;;;;;;;5118778;27;45596;-64
2022/12/12 05:42:36;;;;;;;;;42.67;32.33;;;;;;;;5118550;27;45365;-64
2022/12/12 05:45:02;;;;;;;;;35.33;27.33;;;;;;;;5118634;27;45414;-64
2022/12/12 05:47:27;;;;;;;;;37.67;22.67;;;;;;;;5118488;27;45366;-64
2022/12/12 05:49:53;;;;;;;;;29.00;23.33;;;;;;;;5118988;27;45455;-64
2022/12/12 05:52:18;;;;;;;;;34.00;23.67;;;;;;;;5118127;27;45444;-64
2022/12/12 05:54:43;;;;;;;;;37.67;30.33;;;;;;;;5112295;27;45332;-64
2022/12/12 05:57:08;;;;;;;;;31.50;23.00;;;;;;;;5118815;27;45417;-64
2022/12/12 05:59:34;;;;;;;;;33.67;23.00;;;;;;;;5110163;27;45366;-64
2022/12/12 06:01:59;;;;;;;;;34.33;26.67;;;;;;;;5116073;27;47305;-64
2022/12/12 06:04:24;;;;;;;;;28.67;25.00;;;;;;;;5118359;27;45393;-64
2022/12/12 06:06:49;;;;;;;;;29.00;25.67;;;;;;;;5118244;27;45292;-64
2022/12/12 06:09:15;;;;;;;;;29.33;27.00;;;;;;;;5118745;27;45235;-64
2022/12/12 06:11:40;;;;;;;;;28.33;21.00;;;;;;;;5118336;27;45511;-64
2022/12/12 06:14:05;;;;;;;;;40.33;26.33;;;;;;;;5118026;27;45757;-64
2022/12/12 06:16:30;;;;;;;;;28.67;20.33;;;;;;;;5117376;27;45227;-64
2022/12/12 06:18:56;;;;;;;;;34.00;22.00;;;;;;;;5109174;27;45392;-65
2022/12/12 06:21:21;;;;;;;;;38.33;26.00;;;;;;;;5097443;27;45363;-65
2022/12/12 06:23:47;;;;;;;;;30.67;23.33;;;;;;;;5117072;27;45484;-65
2022/12/12 06:26:13;;;;;;;;;27.33;25.33;;;;;;;;5118240;27;45391;-64
2022/12/12 06:28:38;;;;;;;;;50.33;36.00;;;;;;;;5118245;27;45221;-64
2022/12/12 06:31:04;;;;;;;;;26.00;23.00;;;;;;;;5117049;27;45476;-65
2022/12/12 06:33:31;;;;;;;;;37.00;23.33;;;;;;;;5117839;27;45514;-64
2022/12/12 06:36:00;;;;;;;;;37.00;23.67;;;;;;;;5112995;27;45483;-64
2022/12/12 06:38:25;;;;;;;;;32.67;22.00;;;;;;;;5118043;27;45535;-64
2022/12/12 06:40:51;;;;;;;;;34.67;25.00;;;;;;;;5117397;27;46076;-66
2022/12/12 06:43:16;;;;;;;;;27.67;21.67;;;;;;;;5117626;27;45325;-64
2022/12/12 06:45:41;;;;;;;;;32.67;28.00;;;;;;;;5116198;27;45489;-66
2022/12/12 06:48:06;;;;;;;;;27.33;22.00;;;;;;;;5117996;27;45417;-65
2022/12/12 06:50:31;;;;;;;;;27.00;20.33;;;;;;;;5117755;27;45820;-64
2022/12/12 06:52:57;;;;;;;;;24.67;22.00;;;;;;;;5111600;27;45480;-64
2022/12/12 06:55:22;;;;;;;;;30.00;23.00;;;;;;;;5117841;27;45227;-64
2022/12/12 06:57:47;;;;;;;;;24.33;21.67;;;;;;;;5117755;27;45372;-64
2022/12/12 07:00:13;;;;;;;;;34.00;26.00;;;;;;;;5115544;27;45532;-64
2022/12/12 07:02:38;;;;;;;;;28.67;24.67;;;;;;;;5110321;27;45271;-64
2022/12/12 07:05:03;;;;;;;;;37.00;24.67;;;;;;;;5117562;27;45399;-64
2022/12/12 07:07:28;;;;;;;;;27.00;21.33;;;;;;;;5117665;27;45451;-64
2022/12/12 07:09:54;;;;;;;;;29.33;19.00;;;;;;;;5114938;27;46385;-63
2022/12/12 07:12:19;;;;;;;;;34.00;27.33;;;;;;;;5117318;27;45816;-64
2022/12/12 07:14:44;;;;;;;;;24.67;22.00;;;;;;;;5117486;27;45339;-64
2022/12/12 07:17:10;;;;;;;;;39.00;27.67;;;;;;;;5117256;27;45387;-64
2022/12/12 07:19:35;;;;;;;;;36.67;27.00;;;;;;;;5116154;27;46401;-65
2022/12/12 07:22:00;;;;;;;;;29.33;25.00;;;;;;;;5113245;27;45644;-64
2022/12/12 07:24:26;;;;;;;;;28.00;23.00;;;;;;;;5116242;27;45415;-65
2022/12/12 07:26:51;;;;;;;;;28.00;24.33;;;;;;;;5117008;27;45448;-64
2022/12/12 07:29:16;;;;;;;;;28.00;23.67;;;;;;;;5118649;27;45652;-64
2022/12/12 07:31:41;;;;;;;;;27.67;22.67;;;;;;;;5120217;27;45464;-65
2022/12/12 07:34:07;;;;;;;;;52.00;36.00;;;;;;;;5120168;27;45460;-65
2022/12/12 07:36:32;;;;;;;;;33.33;23.00;;;;;;;;5120462;27;45344;-65
2022/12/12 07:38:57;;;;;;;;;38.00;30.33;;;;;;;;5120577;27;46324;-64
2022/12/12 07:41:22;;;;;;;;;26.33;23.33;;;;;;;;5120402;27;45340;-64
2022/12/12 07:43:48;;;;;;;;;27.00;22.33;;;;;;;;5120855;27;45266;-65
2022/12/12 07:46:19;;;;;;;;;29.33;23.00;;;;;;;;5120621;27;46094;-65
2022/12/12 07:48:44;;;;;;;;;27.33;22.00;;;;;;;;5119686;27;49040;-65
2022/12/12 07:51:09;;;;;;;;;28.67;22.00;;;;;;;;5120031;27;45436;-65
2022/12/12 07:53:35;;;;;;;;;26.00;21.67;;;;;;;;5120308;27;45585;-65
2022/12/12 07:56:03;;;;;;;;;33.33;25.67;;;;;;;;5120849;27;45323;-65
2022/12/12 07:58:28;;;;;;;;;34.00;27.00;;;;;;;;5120412;27;46504;-65
2022/12/12 08:00:53;;;;;;;;;33.33;28.33;;;;;;;;5120314;27;45463;-65
2022/12/12 08:03:19;;;;;;;;;35.67;26.67;;;;;;;;5120394;27;45491;-65
2022/12/12 08:05:44;;;;;;;;;34.33;27.00;;;;;;;;5120702;27;45270;-65
2022/12/12 08:08:10;;;;;;;;;34.67;24.33;;;;;;;;5120232;27;46158;-65
2022/12/12 08:10:37;;;;;;;;;32.33;20.33;;;;;;;;5120291;27;45494;-65
2022/12/12 08:13:02;;;;;;;;;33.67;29.00;;;;;;;;5120120;27;45404;-71
2022/12/12 08:15:27;;;;;;;;;35.00;27.33;;;;;;;;5120360;27;45470;-66
2022/12/12 08:17:53;;;;;;;;;30.00;26.33;;;;;;;;5119805;27;46197;-65
2022/12/12 08:20:18;;;;;;;;;20.00;16.33;;;;;;;;5120251;27;45422;-64
2022/12/12 08:22:43;;;;;;;;;28.33;22.00;;;;;;;;5120146;27;45335;-65
2022/12/12 08:25:08;;;;;;;;;32.00;22.67;;;;;;;;5120226;27;45337;-65
2022/12/12 08:27:33;;;;;;;;;29.33;26.67;;;;;;;;5119699;27;46757;-64
2022/12/12 08:29:59;;;;;;;;;27.67;24.67;;;;;;;;5119991;27;45326;-65
2022/12/12 08:32:24;;;;;;;;;28.33;22.33;;;;;;;;5120047;27;45257;-64
2022/12/12 08:34:49;;;;;;;;;25.67;23.00;;;;;;;;5120274;27;45452;-64
2022/12/12 08:37:14;;;;;;;;;29.00;22.00;;;;;;;;5119769;27;46174;-64
2022/12/12 08:39:40;;;;;;;;;31.33;22.00;;;;;;;;5119675;27;45598;-65
2022/12/12 08:42:05;;;;;;;;;29.67;26.00;;;;;;;;5119898;27;45413;-65
2022/12/12 08:44:30;;;;;;;;;32.00;26.00;;;;;;;;5120192;27;45418;-64
2022/12/12 08:46:55;;;;;;;;;25.67;24.67;;;;;;;;5119578;27;45626;-65
2022/12/12 08:49:21;;;;;;;;;30.00;23.00;;;;;;;;5119578;27;45424;-65
2022/12/12 08:51:46;;;;;;;;;27.67;25.33;;;;;;;;5119847;27;45475;-64
2022/12/12 08:54:12;;;;;;;;;21.00;17.33;;;;;;;;5119874;27;45341;-64
2022/12/12 08:56:37;;;;;;;;;30.33;24.67;;;;;;;;5119705;27;46400;-65
2022/12/12 08:59:03;;;;;;;;;30.00;26.00;;;;;;;;5119533;27;45463;-64
2022/12/12 09:01:28;;;;;;;;;25.33;23.33;;;;;;;;5119462;27;45321;-65
2022/12/12 09:03:55;;;;;;;;;30.00;22.00;;;;;;;;5119742;27;45756;-64
2022/12/12 09:06:20;;;;;;;;;29.33;22.00;;;;;;;;5119273;27;45343;-64
2022/12/12 09:08:46;;;;;;;;;32.67;25.33;;;;;;;;5119502;27;45470;-64
2022/12/12 09:11:11;;;;;;;;;28.00;22.00;;;;;;;;5119431;27;45456;-65
2022/12/12 09:13:37;;;;;;;;;29.33;26.00;;;;;;;;5119496;27;45361;-65
2022/12/12 09:16:03;;;;;;;;;35.67;25.33;;;;;;;;5119248;27;46334;-65
2022/12/12 09:18:28;;;;;;;;;27.00;20.33;;;;;;;;5119066;27;45872;-65
2022/12/12 09:20:55;;;;;;;;;38.00;27.00;;;;;;;;5119373;27;45292;-65
2022/12/12 09:23:21;;;;;;;;;39.00;24.33;;;;;;;;5119159;27;45409;-64
2022/12/12 09:25:47;;;;;;;;;32.00;29.67;;;;;;;;5118817;27;46334;-64
2022/12/12 09:28:13;;;;;;;;;24.67;20.00;;;;;;;;5118958;27;46061;-64
2022/12/12 09:30:38;;;;;;;;;29.67;24.00;;;;;;;;5119194;27;45336;-64
2022/12/12 09:33:04;;;;;;;;;43.33;32.67;;;;;;;;5119000;27;45244;-65
2022/12/12 09:35:29;;;;;;;;;24.33;20.67;;;;;;;;5118885;27;45720;-65
2022/12/12 09:37:54;;;;;;;;;21.33;16.33;;;;;;;;5119026;27;45399;-65
2022/12/12 09:40:23;;;;;;;;;31.00;30.67;;;;;;;;5119116;27;45862;-65
2022/12/12 09:42:50;;;;;;;;;31.00;27.33;;;;;;;;5119019;27;45370;-65
2022/12/12 09:45:15;;;;;;;;;38.33;28.67;;;;;;;;5118611;27;45435;-65
2022/12/12 09:47:40;;;;;;;;;34.33;28.00;;;;;;;;5118740;27;45403;-65
2022/12/12 09:50:22;;;;;;;;;29.00;22.67;;;;;;;;5118906;27;45299;-65
2022/12/12 09:52:47;;;;;;;;;24.33;19.00;;;;;;;;5117957;27;45189;-65
2022/12/12 09:55:19;;;;;;;;;25.33;23.67;;;;;;;;5118630;27;46153;-64
2022/12/12 09:57:47;;;;;;;;;22.67;22.00;;;;;;;;5118617;27;45333;-64
2022/12/12 10:00:13;;;;;;;;;25.33;20.67;;;;;;;;5118492;27;45259;-67
2022/12/12 10:02:46;;;;;;;;;33.33;26.67;;;;;;;;5118862;27;45234;-64
2022/12/12 10:05:14;;;;;;;;;55.00;42.33;;;;;;;;5118338;27;46649;-65
2022/12/12 10:07:52;;;;;;;;;24.33;20.33;;;;;;;;5118382;27;45432;-64
2022/12/12 10:10:38;;;;;;;;;28.00;22.67;;;;;;;;5118702;27;45428;-64
2022/12/12 10:13:05;;;;;;;;;23.67;19.33;;;;;;;;5118589;27;45511;-65
2022/12/12 10:15:33;;;;;;;;;23.33;17.00;;;;;;;;5118231;27;46394;-64
2022/12/12 10:17:59;;;;;;;;;22.67;19.67;;;;;;;;5118174;27;45397;-64
2022/12/12 10:20:27;;;;;;;;;25.33;22.33;;;;;;;;5118503;27;45469;-65
2022/12/12 10:23:12;;;;;;;;;41.67;34.33;;;;;;;;5118288;27;45473;-64
2022/12/12 10:25:49;;;;;;;;;24.00;21.00;;;;;;;;5117954;27;47722;-65
2022/12/12 10:28:15;;;;;;;;;22.33;19.33;;;;;;;;5118117;27;45294;-65
2022/12/12 10:30:52;;;;;;;;;25.67;22.00;;;;;;;;5118256;27;45374;-64
2022/12/12 10:33:30;;;;;;;;;22.67;21.67;;;;;;;;5118138;27;45304;-65
2022/12/12 10:35:55;;;;;;;;;18.00;17.00;;;;;;;;5117888;27;45444;-65
2022/12/12 10:38:28;;;;;;;;;24.00;18.67;;;;;;;;5118111;27;45360;-64
2022/12/12 10:40:56;;;;;;;;;24.33;24.33;;;;;;;;5118210;27;45262;-65
2022/12/12 10:43:24;;;;;;;;;31.67;20.33;;;;;;;;5118286;27;45250;-65
2022/12/12 10:45:52;;;;;;;;;24.67;18.00;;;;;;;;5117944;27;45816;-65
2022/12/12 10:48:18;;;;;;;;;31.00;22.67;;;;;;;;5117664;27;45389;-65
2022/12/12 10:50:44;;;;;;;;;32.00;23.00;;;;;;;;5117966;27;45318;-65
2022/12/12 10:53:10;;;;;;;;;29.33;23.00;;;;;;;;5118130;27;45534;-67
2022/12/12 10:55:52;;;;;;;;;24.00;21.33;;;;;;;;5117644;27;45402;-65
2022/12/12 10:58:18;;;;;;;;;27.67;27.67;;;;;;;;5117569;27;45366;-65
2022/12/12 11:00:44;;;;;;;;;18.33;14.67;;;;;;;;5117841;27;45363;-65
2022/12/12 11:03:19;;;;;;;;;30.00;28.67;;;;;;;;5119636;27;45330;-65
2022/12/12 11:05:44;;;;;;;;;26.67;22.00;;;;;;;;5121220;27;45483;-65
2022/12/12 11:08:18;;;;;;;;;21.67;20.00;;;;;;;;5121355;27;45322;-65
2022/12/12 11:10:43;;;;;;;;;28.67;23.33;;;;;;;;5121395;27;45436;-65
2022/12/12 11:13:09;;;;;;;;;27.67;25.00;;;;;;;;5121229;27;45491;-65
2022/12/12 11:15:44;;;;;;;;;35.00;29.67;;;;;;;;5121230;27;46154;-65
2022/12/12 11:18:13;;;;;;;;;30.67;21.67;;;;;;;;5121046;27;45274;-65
2022/12/12 11:20:43;;;;;;;;;34.33;26.00;;;;;;;;5121058;27;45336;-64
2022/12/12 11:23:14;;;;;;;;;31.00;18.67;;;;;;;;5121297;27;45362;-64
2022/12/12 11:25:39;;;;;;;;;32.00;25.00;;;;;;;;5120777;27;45504;-64
2022/12/12 11:28:05;;;;;;;;;27.33;22.33;;;;;;;;5121048;27;45395;-65
2022/12/12 11:30:35;;;;;;;;;29.67;21.67;;;;;;;;5121227;27;45512;-65
2022/12/12 11:33:01;;;;;;;;;36.33;26.00;;;;;;;;5120980;27;45440;-64
2022/12/12 11:35:31;;;;;;;;;33.00;24.33;;;;;;;;5120527;27;46401;-64
2022/12/12 11:37:59;;;;;;;;;27.67;20.33;;;;;;;;5120837;27;45436;-65
2022/12/12 11:40:32;;;;;;;;;19.00;15.00;;;;;;;;5120857;27;45753;-65
2022/12/12 11:43:14;;;;;;;;;25.33;20.33;;;;;;;;5120977;27;45428;-65
2022/12/12 11:45:40;;;;;;;;;35.00;23.00;;;;;;;;5120839;27;46450;-64
2022/12/12 11:48:28;;;;;;;;;38.00;26.67;;;;;;;;5120576;27;45397;-64
2022/12/12 11:50:53;;;;;;;;;24.00;19.67;;;;;;;;5120822;27;45262;-64
2022/12/12 11:53:18;;;;;;;;;29.00;24.33;;;;;;;;5120657;27;45615;-64
2022/12/12 11:55:58;;;;;;;;;27.00;21.33;;;;;;;;5120632;27;46211;-65
2022/12/12 11:58:29;;;;;;;;;29.00;21.67;;;;;;;;5120535;27;45456;-64
2022/12/12 12:00:59;;;;;;;;;29.00;22.33;;;;;;;;5120630;27;45466;-64
2022/12/12 12:03:41;;;;;;;;;31.33;21.67;;;;;;;;5120649;27;45433;-65
2022/12/12 12:06:09;;;;;;;;;28.67;20.00;;;;;;;;5120502;27;45455;-64
2022/12/12 12:08:38;;;;;;;;;34.33;21.67;;;;;;;;5120284;27;45367;-65
2022/12/12 12:11:04;;;;;;;;;33.67;25.33;;;;;;;;5120451;27;45377;-64
2022/12/12 12:13:42;;;;;;;;;26.33;22.67;;;;;;;;5120550;27;45305;-65
2022/12/12 12:16:22;;;;;;;;;31.00;25.33;;;;;;;;5119612;27;45412;-64
2022/12/12 12:18:59;;;;;;;;;28.33;20.33;;;;;;;;5120157;27;45827;-65
2022/12/12 12:21:33;;;;;;;;;19.00;13.33;;;;;;;;5120234;27;45325;-65
2022/12/12 12:23:58;;;;;;;;;22.67;17.00;;;;;;;;5120595;27;45223;-65
2022/12/12 12:26:34;;;;;;;;;24.67;20.67;;;;;;;;5119806;27;46828;-65
2022/12/12 12:29:24;;;;;;;;;23.33;21.00;;;;;;;;5116241;27;45373;-64
2022/12/12 12:32:11;;;;;;;;;24.00;20.33;;;;;;;;5118489;27;45714;-68
2022/12/12 12:34:39;;;;;;;;;23.33;18.00;;;;;;;;5099559;27;45420;-68
2022/12/12 12:37:10;;;;;;;;;26.67;18.00;;;;;;;;5109738;27;45459;-67
2022/12/12 12:39:38;;;;;;;;;26.33;18.33;;;;;;;;5107265;27;45492;-67
2022/12/12 12:42:03;;;;;;;;;25.33;18.00;;;;;;;;5116422;27;45482;-67
2022/12/12 12:44:28;;;;;;;;;27.00;21.00;;;;;;;;5122290;27;45360;-67
2022/12/12 12:46:56;;;;;;;;;26.33;21.67;;;;;;;;5118810;27;46358;-68
2022/12/12 12:49:32;;;;;;;;;27.67;21.00;;;;;;;;5117649;27;45440;-67
2022/12/12 12:52:16;;;;;;;;;26.33;19.00;;;;;;;;5119405;27;45405;-66
2022/12/12 12:54:45;;;;;;;;;19.67;16.00;;;;;;;;5118498;27;45467;-67
2022/12/12 12:57:11;;;;;;;;;28.67;19.00;;;;;;;;5113561;27;46286;-67
2022/12/12 12:59:39;;;;;;;;;26.67;20.00;;;;;;;;5133866;27;45342;-67
2022/12/12 13:02:13;;;;;;;;;23.00;20.33;;;;;;;;5125722;27;45448;-67
2022/12/12 13:04:49;;;;;;;;;22.67;20.00;;;;;;;;5120145;27;45421;-67
2022/12/12 13:07:24;;;;;;;;;20.33;17.33;;;;;;;;5103754;27;46464;-67
2022/12/12 13:10:01;;;;;;;;;19.67;14.67;;;;;;;;5118381;27;45418;-68
2022/12/12 13:12:41;;;;;;;;;14.67;14.00;;;;;;;;5118153;27;45423;-67
2022/12/12 13:15:16;;;;;;;;;19.33;16.67;;;;;;;;5106156;27;45404;-67
2022/12/12 13:17:41;;;;;;;;;25.33;18.00;;;;;;;;5112849;27;46545;-68
2022/12/12 13:20:11;;;;;;;;;22.33;17.00;;;;;;;;5110171;27;45529;-67
2022/12/12 13:22:55;;;;;;;;;20.00;15.33;;;;;;;;5108215;27;45737;-67
2022/12/12 13:25:37;;;;;;;;;27.00;20.00;;;;;;;;5109385;27;45664;-67
2022/12/12 13:28:04;;;;;;;;;23.00;18.33;;;;;;;;5105740;27;46913;-67
2022/12/12 13:30:37;;;;;;;;;22.67;17.00;;;;;;;;5115081;27;45398;-67
2022/12/12 13:33:24;;;;;;;;;19.67;16.67;;;;;;;;5112986;27;45432;-67
2022/12/12 13:35:51;;;;;;;;;21.67;17.33;;;;;;;;5106562;27;45520;-68
2022/12/12 13:38:26;;;;;;;;;23.00;17.00;;;;;;;;5100466;27;45469;-67
2022/12/12 13:41:09;;;;;;;;;23.67;17.67;;;;;;;;5114546;27;45432;-68
2022/12/12 13:43:37;;;;;;;;;21.67;17.33;;;;;;;;5118126;27;45440;-67
2022/12/12 13:46:18;;;;;;;;;20.33;20.33;;;;;;;;5118831;27;45536;-67
2022/12/12 13:48:46;;;;;;;;;19.00;15.67;;;;;;;;5112052;27;45380;-67
2022/12/12 13:51:27;;;;;;;;;26.33;18.67;;;;;;;;5117002;27;45490;-67
2022/12/12 13:54:12;;;;;;;;;28.33;20.33;;;;;;;;5117516;27;45412;-68
2022/12/12 13:56:40;;;;;;;;;20.00;14.00;;;;;;;;5053727;28;45571;-67
2022/12/12 13:59:20;;;;;;;;;22.00;19.00;;;;;;;;5053866;28;45597;-68
2022/12/12 14:01:46;;;;;;;;;18.00;17.67;;;;;;;;5049739;28;45440;-67
2022/12/12 14:04:23;;;;;;;;;28.67;20.33;;;;;;;;5052928;28;45490;-67
2022/12/12 14:07:01;;;;;;;;;25.00;21.00;;;;;;;;5053561;28;45494;-67
2022/12/12 14:09:32;;;;;;;;;24.33;18.33;;;;;;;;5053431;28;45793;-67
2022/12/12 14:12:07;;;;;;;;;23.33;16.67;;;;;;;;5053770;28;45911;-67
2022/12/12 14:14:34;;;;;;;;;37.33;28.33;;;;;;;;5053621;28;45799;-67
2022/12/12 14:17:00;;;;;;;;;21.67;16.33;;;;;;;;5053922;28;45458;-67
2022/12/12 14:19:32;;;;;;;;;20.00;16.67;;;;;;;;5052952;28;45593;-68
2022/12/12 14:21:57;;;;;;;;;30.33;22.33;;;;;;;;5053023;28;45508;-68
2022/12/12 14:24:31;;;;;;;;;23.67;19.33;;;;;;;;5053267;28;45378;-68
2022/12/12 14:26:57;;;;;;;;;28.67;18.00;;;;;;;;5053755;28;45591;-68
2022/12/12 14:29:24;;;;;;;;;18.67;18.67;;;;;;;;5054246;28;47058;-68
2022/12/12 14:31:55;;;;;;;;;24.67;20.33;;;;;;;;5054579;28;45775;-68
2022/12/12 14:34:20;;;;;;;;;26.33;22.00;;;;;;;;5101753;27;45263;-67
2022/12/12 14:37:04;;;;;;;;;22.00;19.00;;;;;;;;5116319;27;45854;-68
2022/12/12 14:39:43;;;;;;;;;22.33;17.00;;;;;;;;5118931;27;47400;-67